createdAt,value
2017-03-06T00:00:40.188Z,0
2017-03-06T00:01:51.639Z,0
2017-03-06T00:03:03.279Z,0
2017-03-06T00:04:14.720Z,0
2017-03-06T00:05:26.168Z,0
2017-03-06T00:06:37.864Z,0
2017-03-06T00:07:49.325Z,0
2017-03-06T00:09:00.790Z,0
2017-03-06T00:10:12.437Z,0
2017-03-06T00:11:23.869Z,0
2017-03-06T00:12:35.374Z,0
2017-03-06T00:13:46.811Z,0
2017-03-06T00:14:58.459Z,0
2017-03-06T00:16:10.102Z,0
2017-03-06T00:17:21.538Z,0
2017-03-06T00:18:33.017Z,0
2017-03-06T00:19:44.445Z,0
2017-03-06T00:20:56.062Z,0
2017-03-06T00:22:07.495Z,0
2017-03-06T00:23:19.116Z,0
2017-03-06T00:24:30.617Z,0
2017-03-06T00:25:42.081Z,0
2017-03-06T00:26:53.517Z,0
2017-03-06T00:28:05.153Z,0
2017-03-06T00:29:16.807Z,0
2017-03-06T00:30:28.303Z,0
2017-03-06T00:31:39.750Z,0
2017-03-06T00:32:51.178Z,0
2017-03-06T00:34:02.614Z,0
2017-03-06T00:35:14.060Z,0
2017-03-06T00:36:25.748Z,0
2017-03-06T00:37:37.192Z,0
2017-03-06T00:38:48.628Z,0
2017-03-06T00:40:00.051Z,0
2017-03-06T00:41:11.477Z,0
2017-03-06T00:42:22.968Z,0
2017-03-06T00:43:34.404Z,0
2017-03-06T00:44:45.853Z,0
2017-03-06T00:45:57.314Z,0
2017-03-06T00:47:08.957Z,0
2017-03-06T00:48:20.440Z,0
2017-03-06T00:49:31.887Z,0
2017-03-06T00:50:43.532Z,0
2017-03-06T00:51:54.980Z,0
2017-03-06T00:53:06.446Z,0
2017-03-06T00:54:17.930Z,0
2017-03-06T00:55:29.367Z,0
2017-03-06T00:56:40.804Z,0
2017-03-06T00:57:52.270Z,0
2017-03-06T00:59:03.705Z,0
2017-03-06T01:00:15.203Z,0
2017-03-06T01:01:26.826Z,0
2017-03-06T01:02:38.266Z,0
2017-03-06T01:03:49.694Z,0
2017-03-06T01:05:01.116Z,0
2017-03-06T01:06:12.615Z,0
2017-03-06T01:07:24.035Z,0
2017-03-06T01:08:35.471Z,0
2017-03-06T01:09:46.917Z,0
2017-03-06T01:10:58.358Z,0
2017-03-06T01:12:09.854Z,0
2017-03-06T01:13:21.277Z,0
2017-03-06T01:14:32.899Z,0
2017-03-06T01:15:44.328Z,0
2017-03-06T01:16:55.774Z,0
2017-03-06T01:18:07.274Z,0
2017-03-06T01:19:18.691Z,0
2017-03-06T01:20:30.130Z,0
2017-03-06T01:21:41.799Z,0
2017-03-06T01:22:53.246Z,0
2017-03-06T01:24:04.739Z,0
2017-03-06T01:25:16.176Z,0
2017-03-06T01:26:27.616Z,0
2017-03-06T01:27:39.060Z,0
2017-03-06T01:28:50.489Z,0
2017-03-06T01:30:01.970Z,0
2017-03-06T01:31:13.427Z,0
2017-03-06T01:32:24.850Z,0
2017-03-06T01:33:36.284Z,0
2017-03-06T01:34:47.723Z,0
2017-03-06T01:35:59.210Z,0
2017-03-06T01:37:10.653Z,0
2017-03-06T01:38:22.287Z,0
2017-03-06T01:39:33.713Z,0
2017-03-06T01:40:45.340Z,0
2017-03-06T01:41:57.038Z,0
2017-03-06T01:43:08.496Z,0
2017-03-06T01:44:19.933Z,0
2017-03-06T01:45:31.369Z,0
2017-03-06T01:46:42.815Z,0
2017-03-06T01:47:54.313Z,0
2017-03-06T01:49:05.937Z,0
2017-03-06T01:50:17.385Z,0
2017-03-06T01:51:29.036Z,0
2017-03-06T01:52:40.476Z,0
2017-03-06T01:53:52.162Z,0
2017-03-06T01:55:03.602Z,0
2017-03-06T01:56:15.051Z,0
2017-03-06T01:57:26.680Z,0
2017-03-06T01:58:38.127Z,0
2017-03-06T01:59:49.611Z,0
2017-03-06T02:01:01.059Z,0
2017-03-06T02:02:12.475Z,0
2017-03-06T02:03:23.908Z,0
2017-03-06T02:04:35.359Z,0
2017-03-06T02:05:46.876Z,0
2017-03-06T02:06:58.299Z,0
2017-03-06T02:08:09.760Z,0
2017-03-06T02:09:21.201Z,0
2017-03-06T02:10:32.827Z,0
2017-03-06T02:11:44.322Z,0
2017-03-06T02:12:55.957Z,0
2017-03-06T02:14:07.589Z,0
2017-03-06T02:15:19.030Z,0
2017-03-06T02:16:30.456Z,0
2017-03-06T02:17:41.937Z,0
2017-03-06T02:18:53.583Z,0
2017-03-06T02:20:05.230Z,0
2017-03-06T02:21:16.669Z,0
2017-03-06T02:22:28.112Z,0
2017-03-06T02:23:39.801Z,0
2017-03-06T02:24:51.263Z,0
2017-03-06T02:26:02.900Z,0
2017-03-06T02:27:14.339Z,0
2017-03-06T02:28:25.795Z,0
2017-03-06T02:29:37.291Z,0
2017-03-06T02:30:48.738Z,0
2017-03-06T02:32:00.182Z,0
2017-03-06T02:33:11.629Z,0
2017-03-06T02:34:23.081Z,0
2017-03-06T02:35:34.569Z,0
2017-03-06T02:36:46.220Z,0
2017-03-06T02:37:57.657Z,0
2017-03-06T02:39:09.296Z,0
2017-03-06T02:40:20.737Z,0
2017-03-06T02:41:32.231Z,0
2017-03-06T02:42:43.860Z,0
2017-03-06T02:43:55.488Z,0
2017-03-06T02:45:06.943Z,0
2017-03-06T02:46:18.382Z,0
2017-03-06T02:47:29.884Z,0
2017-03-06T02:48:41.529Z,0
2017-03-06T02:49:53.383Z,0
2017-03-06T02:51:04.812Z,0
2017-03-06T02:52:16.251Z,0
2017-03-06T02:53:27.733Z,0
2017-03-06T02:54:39.350Z,0
2017-03-06T02:55:50.790Z,0
2017-03-06T02:57:02.222Z,0
2017-03-06T02:58:13.648Z,0
2017-03-06T02:59:25.133Z,0
2017-03-06T03:00:36.579Z,0
2017-03-06T03:01:48.009Z,0
2017-03-06T03:02:59.443Z,0
2017-03-06T03:04:10.875Z,0
2017-03-06T03:05:22.348Z,0
2017-03-06T03:06:33.773Z,0
2017-03-06T03:07:45.199Z,0
2017-03-06T03:08:56.634Z,0
2017-03-06T03:10:08.074Z,0
2017-03-06T03:11:19.758Z,0
2017-03-06T03:12:31.202Z,0
2017-03-06T03:13:42.626Z,0
2017-03-06T03:14:54.048Z,0
2017-03-06T03:16:05.690Z,0
2017-03-06T03:17:17.375Z,0
2017-03-06T03:18:28.816Z,0
2017-03-06T03:19:40.239Z,0
2017-03-06T03:20:51.679Z,0
2017-03-06T03:22:03.123Z,0
2017-03-06T03:23:14.596Z,0
2017-03-06T03:24:26.051Z,0
2017-03-06T03:25:37.672Z,0
2017-03-06T03:26:49.104Z,0
2017-03-06T03:28:00.743Z,0
2017-03-06T03:29:12.232Z,0
2017-03-06T03:30:23.666Z,0
2017-03-06T03:31:35.082Z,0
2017-03-06T03:32:46.517Z,0
2017-03-06T03:33:57.936Z,0
2017-03-06T03:35:09.613Z,0
2017-03-06T03:36:21.244Z,0
2017-03-06T03:37:32.697Z,0
2017-03-06T03:38:44.137Z,0
2017-03-06T03:39:55.593Z,0
2017-03-06T03:41:07.077Z,0
2017-03-06T03:42:18.735Z,0
2017-03-06T03:43:30.162Z,0
2017-03-06T03:44:42.026Z,0
2017-03-06T03:45:53.656Z,0
2017-03-06T03:47:05.140Z,0
2017-03-06T03:48:16.610Z,0
2017-03-06T03:49:28.050Z,0
2017-03-06T03:50:39.533Z,0
2017-03-06T03:51:51.167Z,0
2017-03-06T03:53:02.649Z,0
2017-03-06T03:54:14.289Z,0
2017-03-06T03:55:25.722Z,0
2017-03-06T03:56:37.163Z,0
2017-03-06T03:57:48.607Z,0
2017-03-06T03:59:00.107Z,0
2017-03-06T04:00:11.529Z,0
2017-03-06T04:01:22.968Z,0
2017-03-06T04:02:34.406Z,0
2017-03-06T04:03:45.874Z,0
2017-03-06T04:04:57.541Z,0
2017-03-06T04:06:08.993Z,0
2017-03-06T04:07:20.419Z,0
2017-03-06T04:08:32.054Z,0
2017-03-06T04:09:43.491Z,0
2017-03-06T04:10:55.188Z,0
2017-03-06T04:12:06.635Z,0
2017-03-06T04:13:18.064Z,0
2017-03-06T04:14:29.495Z,0
2017-03-06T04:15:40.935Z,0
2017-03-06T04:16:52.439Z,0
2017-03-06T04:18:04.071Z,0
2017-03-06T04:19:15.500Z,0
2017-03-06T04:20:27.159Z,0
2017-03-06T04:21:38.588Z,0
2017-03-06T04:22:50.065Z,0
2017-03-06T04:24:01.497Z,0
2017-03-06T04:25:12.954Z,0
2017-03-06T04:26:24.400Z,0
2017-03-06T04:27:36.051Z,0
2017-03-06T04:28:47.540Z,0
2017-03-06T04:29:58.969Z,0
2017-03-06T04:31:10.393Z,0
2017-03-06T04:32:21.834Z,0
2017-03-06T04:33:33.280Z,0
2017-03-06T04:34:44.763Z,0
2017-03-06T04:35:56.185Z,0
2017-03-06T04:37:07.824Z,0
2017-03-06T04:38:19.665Z,0
2017-03-06T04:39:31.102Z,0
2017-03-06T04:40:42.592Z,0
2017-03-06T04:41:54.044Z,0
2017-03-06T04:43:05.474Z,0
2017-03-06T04:44:16.898Z,0
2017-03-06T04:45:28.546Z,0
2017-03-06T04:46:40.029Z,0
2017-03-06T04:47:51.668Z,0
2017-03-06T04:49:03.106Z,0
2017-03-06T04:50:14.535Z,0
2017-03-06T04:51:25.954Z,0
2017-03-06T04:52:37.439Z,0
2017-03-06T04:53:48.869Z,0
2017-03-06T04:55:00.321Z,0
2017-03-06T04:56:11.770Z,0
2017-03-06T04:57:23.202Z,0
2017-03-06T04:58:34.676Z,0
2017-03-06T04:59:46.119Z,0
2017-03-06T05:00:57.549Z,0
2017-03-06T05:02:08.985Z,0
2017-03-06T05:03:20.435Z,0
2017-03-06T05:04:31.903Z,0
2017-03-06T05:05:43.345Z,0
2017-03-06T05:06:54.767Z,0
2017-03-06T05:08:06.198Z,0
2017-03-06T05:09:17.835Z,0
2017-03-06T05:10:29.317Z,0
2017-03-06T05:11:40.756Z,0
2017-03-06T05:12:52.184Z,0
2017-03-06T05:14:03.618Z,0
2017-03-06T05:15:15.048Z,0
2017-03-06T05:16:26.561Z,0
2017-03-06T05:17:37.985Z,0
2017-03-06T05:18:49.414Z,0
2017-03-06T05:20:00.845Z,0
2017-03-06T05:21:12.299Z,0
2017-03-06T05:22:23.998Z,0
2017-03-06T05:23:35.421Z,0
2017-03-06T05:24:46.861Z,0
2017-03-06T05:25:58.304Z,0
2017-03-06T05:27:09.731Z,0
2017-03-06T05:28:21.208Z,0
2017-03-06T05:29:32.651Z,0
2017-03-06T05:30:44.110Z,0
2017-03-06T05:31:55.530Z,0
2017-03-06T05:33:06.970Z,0
2017-03-06T05:34:18.465Z,0
2017-03-06T05:35:30.111Z,0
2017-03-06T05:36:41.740Z,0
2017-03-06T05:37:53.365Z,0
2017-03-06T05:39:05.019Z,4
2017-03-06T05:40:16.498Z,0
2017-03-06T05:41:27.936Z,4
2017-03-06T05:42:39.354Z,4
2017-03-06T05:43:50.802Z,4
2017-03-06T05:45:02.230Z,4
2017-03-06T05:46:13.894Z,4
2017-03-06T05:47:25.335Z,4
2017-03-06T05:48:36.773Z,8
2017-03-06T05:49:48.212Z,8
2017-03-06T05:50:59.645Z,12
2017-03-06T05:52:11.115Z,8
2017-03-06T05:53:22.587Z,16
2017-03-06T05:54:34.018Z,16
2017-03-06T05:55:45.452Z,20
2017-03-06T05:56:57.095Z,24
2017-03-06T05:58:09.010Z,24
2017-03-06T05:59:20.462Z,24
2017-03-06T06:00:31.889Z,36
2017-03-06T06:01:43.341Z,40
2017-03-06T06:02:54.836Z,52
2017-03-06T06:04:06.527Z,64
2017-03-06T06:05:18.167Z,76
2017-03-06T06:06:29.596Z,92
2017-03-06T06:07:41.042Z,112
2017-03-06T06:08:52.491Z,140
2017-03-06T06:10:03.986Z,176
2017-03-06T06:11:15.426Z,212
2017-03-06T06:12:26.870Z,252
2017-03-06T06:13:38.318Z,292
2017-03-06T06:14:49.776Z,336
2017-03-06T06:16:01.286Z,376
2017-03-06T06:17:12.719Z,428
2017-03-06T06:18:24.154Z,492
2017-03-06T06:19:35.597Z,596
2017-03-06T06:20:47.085Z,708
2017-03-06T06:21:58.600Z,768
2017-03-06T06:23:10.235Z,788
2017-03-06T06:24:21.679Z,812
2017-03-06T06:25:33.116Z,840
2017-03-06T06:26:44.585Z,852
2017-03-06T06:27:56.105Z,848
2017-03-06T06:29:07.559Z,828
2017-03-06T06:30:19.003Z,812
2017-03-06T06:31:30.468Z,792
2017-03-06T06:32:41.895Z,740
2017-03-06T06:33:53.376Z,716
2017-03-06T06:35:04.792Z,764
2017-03-06T06:36:16.233Z,864
2017-03-06T06:37:27.674Z,956
2017-03-06T06:38:39.298Z,992
2017-03-06T06:39:50.786Z,976
2017-03-06T06:41:02.242Z,972
2017-03-06T06:42:13.675Z,976
2017-03-06T06:43:25.115Z,1012
2017-03-06T06:44:36.565Z,1060
2017-03-06T06:45:48.046Z,1032
2017-03-06T06:46:59.491Z,996
2017-03-06T06:48:10.945Z,968
2017-03-06T06:49:22.368Z,892
2017-03-06T06:50:33.818Z,784
2017-03-06T06:51:45.330Z,692
2017-03-06T06:52:56.782Z,616
2017-03-06T06:54:08.214Z,584
2017-03-06T06:55:19.840Z,580
2017-03-06T06:56:31.463Z,592
2017-03-06T06:57:42.953Z,620
2017-03-06T06:58:54.398Z,668
2017-03-06T07:00:06.033Z,728
2017-03-06T07:01:17.463Z,772
2017-03-06T07:02:28.890Z,816
2017-03-06T07:03:40.393Z,820
2017-03-06T07:04:52.064Z,860
2017-03-06T07:06:03.505Z,896
2017-03-06T07:07:15.136Z,964
2017-03-06T07:08:26.562Z,1044
2017-03-06T07:09:38.086Z,1040
2017-03-06T07:10:49.501Z,964
2017-03-06T07:12:00.951Z,1016
2017-03-06T07:13:12.369Z,1168
2017-03-06T07:14:23.813Z,1212
2017-03-06T07:15:35.287Z,1160
2017-03-06T07:16:46.713Z,1096
2017-03-06T07:17:58.142Z,1096
2017-03-06T07:19:09.789Z,1144
2017-03-06T07:20:21.219Z,1240
2017-03-06T07:21:32.911Z,1364
2017-03-06T07:22:44.347Z,1496
2017-03-06T07:23:55.795Z,1584
2017-03-06T07:25:07.452Z,1632
2017-03-06T07:26:18.895Z,1692
2017-03-06T07:27:30.399Z,1728
2017-03-06T07:28:41.834Z,1704
2017-03-06T07:29:53.285Z,1576
2017-03-06T07:31:04.742Z,1356
2017-03-06T07:32:16.164Z,1152
2017-03-06T07:33:27.670Z,1044
2017-03-06T07:34:39.159Z,976
2017-03-06T07:35:50.604Z,924
2017-03-06T07:37:02.247Z,912
2017-03-06T07:38:13.688Z,916
2017-03-06T07:39:25.199Z,900
2017-03-06T07:40:36.632Z,904
2017-03-06T07:41:48.071Z,920
2017-03-06T07:42:59.923Z,972
2017-03-06T07:44:11.355Z,968
2017-03-06T07:45:22.860Z,956
2017-03-06T07:46:34.302Z,956
2017-03-06T07:47:45.926Z,956
2017-03-06T07:48:57.345Z,944
2017-03-06T07:50:08.804Z,984
2017-03-06T07:51:20.279Z,1068
2017-03-06T07:52:31.735Z,1192
2017-03-06T07:53:43.161Z,1304
2017-03-06T07:54:54.591Z,1368
2017-03-06T07:56:06.052Z,1344
2017-03-06T07:57:17.530Z,1324
2017-03-06T07:58:28.977Z,1436
2017-03-06T07:59:40.414Z,1716
2017-03-06T08:00:51.866Z,2036
2017-03-06T08:02:03.304Z,2296
2017-03-06T08:03:14.810Z,2632
2017-03-06T08:04:26.270Z,3336
2017-03-06T08:05:37.713Z,4220
2017-03-06T08:06:49.155Z,5032
2017-03-06T08:08:00.793Z,6008
2017-03-06T08:09:12.264Z,6592
2017-03-06T08:10:23.705Z,5904
2017-03-06T08:11:35.169Z,4008
2017-03-06T08:12:46.799Z,2924
2017-03-06T08:13:58.240Z,2452
2017-03-06T08:15:09.747Z,2268
2017-03-06T08:16:21.195Z,2348
2017-03-06T08:17:32.634Z,2816
2017-03-06T08:18:44.098Z,3156
2017-03-06T08:19:55.527Z,3380
2017-03-06T08:21:07.226Z,3176
2017-03-06T08:22:18.688Z,3084
2017-03-06T08:23:30.129Z,3016
2017-03-06T08:24:41.572Z,2992
2017-03-06T08:25:53.010Z,2884
2017-03-06T08:27:04.508Z,2848
2017-03-06T08:28:15.952Z,3236
2017-03-06T08:29:27.407Z,4220
2017-03-06T08:30:38.850Z,5764
2017-03-06T08:31:50.487Z,8004
2017-03-06T08:33:01.998Z,13924
2017-03-06T08:34:13.437Z,24416
2017-03-06T08:35:24.889Z,80576
2017-03-06T08:36:36.335Z,52960
2017-03-06T08:37:47.779Z,36992
2017-03-06T08:38:59.278Z,13020
2017-03-06T08:40:10.916Z,9112
2017-03-06T08:41:22.348Z,7420
2017-03-06T08:42:33.792Z,7076
2017-03-06T08:43:45.246Z,8460
2017-03-06T08:44:56.734Z,8248
2017-03-06T08:46:08.160Z,7540
2017-03-06T08:47:19.592Z,7284
2017-03-06T08:48:31.030Z,7064
2017-03-06T08:49:42.480Z,7708
2017-03-06T08:50:54.158Z,9088
2017-03-06T08:52:05.639Z,10676
2017-03-06T08:53:17.097Z,9760
2017-03-06T08:54:28.760Z,8628
2017-03-06T08:55:40.208Z,9140
2017-03-06T08:56:51.890Z,8380
2017-03-06T08:58:03.321Z,8384
2017-03-06T08:59:14.767Z,9472
2017-03-06T09:00:26.208Z,10800
2017-03-06T09:01:37.639Z,12664
2017-03-06T09:02:49.155Z,11688
2017-03-06T09:04:00.594Z,10276
2017-03-06T09:05:12.031Z,8624
2017-03-06T09:06:23.472Z,9112
2017-03-06T09:07:34.919Z,7260
2017-03-06T09:08:46.406Z,6472
2017-03-06T09:09:57.867Z,6172
2017-03-06T09:11:09.316Z,8312
2017-03-06T09:12:20.762Z,11788
2017-03-06T09:13:32.187Z,13244
2017-03-06T09:14:43.676Z,12644
2017-03-06T09:15:55.297Z,8624
2017-03-06T09:17:06.739Z,7232
2017-03-06T09:18:18.178Z,10860
2017-03-06T09:19:29.631Z,9328
2017-03-06T09:20:41.149Z,7660
2017-03-06T09:21:52.600Z,6452
2017-03-06T09:23:04.099Z,5812
2017-03-06T09:24:15.531Z,4984
2017-03-06T09:25:26.968Z,4584
2017-03-06T09:26:38.471Z,4660
2017-03-06T09:27:49.917Z,4936
2017-03-06T09:29:01.380Z,4856
2017-03-06T09:30:12.817Z,4416
2017-03-06T09:31:24.467Z,4116
2017-03-06T09:32:35.959Z,3844
2017-03-06T09:33:47.412Z,3828
2017-03-06T09:34:58.849Z,5056
2017-03-06T09:36:10.300Z,8392
2017-03-06T09:37:21.725Z,14904
2017-03-06T09:38:33.200Z,12532
2017-03-06T09:39:44.627Z,9952
2017-03-06T09:40:56.071Z,9240
2017-03-06T09:42:07.542Z,8524
2017-03-06T09:43:19.010Z,8676
2017-03-06T09:44:30.504Z,10328
2017-03-06T09:45:42.131Z,12040
2017-03-06T09:46:53.567Z,12264
2017-03-06T09:48:05.022Z,11424
2017-03-06T09:49:16.673Z,11884
2017-03-06T09:50:28.150Z,12284
2017-03-06T09:51:39.603Z,12636
2017-03-06T09:52:51.040Z,19360
2017-03-06T09:54:02.487Z,13208
2017-03-06T09:55:13.935Z,12080
2017-03-06T09:56:25.421Z,10560
2017-03-06T09:57:37.069Z,8492
2017-03-06T09:58:48.516Z,7024
2017-03-06T09:59:59.947Z,5844
2017-03-06T10:01:11.406Z,4940
2017-03-06T10:02:22.907Z,4248
2017-03-06T10:03:34.358Z,3736
2017-03-06T10:04:45.807Z,3368
2017-03-06T10:05:57.246Z,3020
2017-03-06T10:07:08.682Z,2720
2017-03-06T10:08:20.370Z,2392
2017-03-06T10:09:31.834Z,2060
2017-03-06T10:10:43.276Z,1868
2017-03-06T10:11:54.761Z,1780
2017-03-06T10:13:06.215Z,1748
2017-03-06T10:14:17.713Z,1716
2017-03-06T10:15:29.364Z,1652
2017-03-06T10:16:40.829Z,1540
2017-03-06T10:17:52.300Z,1428
2017-03-06T10:19:03.724Z,1332
2017-03-06T10:20:15.419Z,1252
2017-03-06T10:21:26.856Z,1208
2017-03-06T10:22:38.286Z,1196
2017-03-06T10:23:49.756Z,1188
2017-03-06T10:25:01.189Z,1196
2017-03-06T10:26:12.698Z,1216
2017-03-06T10:27:24.335Z,1256
2017-03-06T10:28:35.966Z,1324
2017-03-06T10:29:47.418Z,1416
2017-03-06T10:30:58.847Z,1544
2017-03-06T10:32:10.343Z,1740
2017-03-06T10:33:21.778Z,1968
2017-03-06T10:34:33.447Z,2184
2017-03-06T10:35:45.071Z,2384
2017-03-06T10:36:56.516Z,2532
2017-03-06T10:38:08.207Z,2632
2017-03-06T10:39:19.639Z,2732
2017-03-06T10:40:31.067Z,2836
2017-03-06T10:41:42.500Z,2944
2017-03-06T10:42:53.938Z,3040
2017-03-06T10:44:05.443Z,3128
2017-03-06T10:45:17.068Z,3208
2017-03-06T10:46:28.518Z,3276
2017-03-06T10:47:40.169Z,3284
2017-03-06T10:48:51.615Z,3188
2017-03-06T10:50:03.128Z,3012
2017-03-06T10:51:14.577Z,2800
2017-03-06T10:52:26.017Z,2584
2017-03-06T10:53:37.453Z,2376
2017-03-06T10:54:48.910Z,2184
2017-03-06T10:56:00.390Z,2020
2017-03-06T10:57:11.833Z,1880
2017-03-06T10:58:23.276Z,1752
2017-03-06T10:59:34.714Z,1644
2017-03-06T11:00:46.161Z,1536
2017-03-06T11:01:57.631Z,1408
2017-03-06T11:03:09.064Z,1252
2017-03-06T11:04:20.906Z,1064
2017-03-06T11:05:32.346Z,888
2017-03-06T11:06:43.799Z,752
2017-03-06T11:07:55.314Z,672
2017-03-06T11:09:06.783Z,636
2017-03-06T11:10:18.419Z,632
2017-03-06T11:11:29.883Z,668
2017-03-06T11:12:41.306Z,736
2017-03-06T11:13:52.842Z,820
2017-03-06T11:15:04.288Z,924
2017-03-06T11:16:15.728Z,1016
2017-03-06T11:17:27.363Z,1112
2017-03-06T11:18:38.807Z,1216
2017-03-06T11:19:50.307Z,1320
2017-03-06T11:21:01.756Z,1436
2017-03-06T11:22:13.220Z,1572
2017-03-06T11:23:24.661Z,1772
2017-03-06T11:24:36.097Z,2072
2017-03-06T11:25:47.524Z,2448
2017-03-06T11:26:58.990Z,2836
2017-03-06T11:28:10.433Z,3188
2017-03-06T11:29:21.867Z,3444
2017-03-06T11:30:33.353Z,3572
2017-03-06T11:31:44.793Z,3624
2017-03-06T11:32:56.229Z,3632
2017-03-06T11:34:07.665Z,3656
2017-03-06T11:35:19.303Z,3728
2017-03-06T11:36:30.746Z,3868
2017-03-06T11:37:42.174Z,4088
2017-03-06T11:38:53.592Z,4416
2017-03-06T11:40:05.036Z,4840
2017-03-06T11:41:16.536Z,5364
2017-03-06T11:42:28.173Z,5932
2017-03-06T11:43:39.835Z,6500
2017-03-06T11:44:51.290Z,6960
2017-03-06T11:46:02.912Z,7248
2017-03-06T11:47:14.551Z,7396
2017-03-06T11:48:25.978Z,7488
2017-03-06T11:49:37.619Z,7424
2017-03-06T11:50:49.270Z,7212
2017-03-06T11:52:00.932Z,6952
2017-03-06T11:53:12.426Z,6752
2017-03-06T11:54:23.853Z,6608
2017-03-06T11:55:35.293Z,6536
2017-03-06T11:56:46.958Z,6608
2017-03-06T11:57:58.433Z,6824
2017-03-06T11:59:09.888Z,7080
2017-03-06T12:00:21.322Z,7320
2017-03-06T12:01:32.966Z,7568
2017-03-06T12:02:44.417Z,7836
2017-03-06T12:03:55.865Z,8184
2017-03-06T12:05:07.491Z,8544
2017-03-06T12:06:19.142Z,8736
2017-03-06T12:07:30.576Z,8856
2017-03-06T12:08:42.056Z,8932
2017-03-06T12:09:53.495Z,8700
2017-03-06T12:11:04.937Z,8136
2017-03-06T12:12:16.391Z,7640
2017-03-06T12:13:27.840Z,7020
2017-03-06T12:14:39.296Z,6372
2017-03-06T12:15:50.949Z,5856
2017-03-06T12:17:02.594Z,5528
2017-03-06T12:18:14.032Z,5352
2017-03-06T12:19:25.517Z,5244
2017-03-06T12:20:37.151Z,5168
2017-03-06T12:21:48.608Z,5140
2017-03-06T12:23:00.044Z,5140
2017-03-06T12:24:11.515Z,5040
2017-03-06T12:25:23.157Z,4796
2017-03-06T12:26:34.589Z,4456
2017-03-06T12:27:46.223Z,4164
2017-03-06T12:28:57.852Z,3984
2017-03-06T12:30:09.349Z,3924
2017-03-06T12:31:20.802Z,3952
2017-03-06T12:32:32.461Z,3976
2017-03-06T12:33:43.908Z,3984
2017-03-06T12:34:55.339Z,4040
2017-03-06T12:36:06.777Z,4128
2017-03-06T12:37:18.204Z,4296
2017-03-06T12:38:29.639Z,4516
2017-03-06T12:39:41.302Z,4704
2017-03-06T12:40:52.785Z,4864
2017-03-06T12:42:04.423Z,5112
2017-03-06T12:43:15.853Z,5400
2017-03-06T12:44:27.285Z,5668
2017-03-06T12:45:38.928Z,5892
2017-03-06T12:46:50.354Z,6048
2017-03-06T12:48:01.791Z,6176
2017-03-06T12:49:13.240Z,6316
2017-03-06T12:50:24.708Z,6504
2017-03-06T12:51:36.201Z,6768
2017-03-06T12:52:47.627Z,7120
2017-03-06T12:53:59.098Z,7600
2017-03-06T12:55:10.547Z,8196
2017-03-06T12:56:21.988Z,8684
2017-03-06T12:57:33.432Z,8972
2017-03-06T12:58:45.069Z,9200
2017-03-06T12:59:56.511Z,9324
2017-03-06T13:01:07.972Z,9216
2017-03-06T13:02:19.659Z,8888
2017-03-06T13:03:31.093Z,8444
2017-03-06T13:04:42.531Z,7920
2017-03-06T13:05:54.207Z,7544
2017-03-06T13:07:06.050Z,7284
2017-03-06T13:08:17.487Z,7128
2017-03-06T13:09:28.942Z,6948
2017-03-06T13:10:40.390Z,6648
2017-03-06T13:11:51.828Z,6292
2017-03-06T13:13:03.328Z,5956
2017-03-06T13:14:14.959Z,5672
2017-03-06T13:15:26.585Z,5408
2017-03-06T13:16:38.033Z,5136
2017-03-06T13:17:49.474Z,4808
2017-03-06T13:19:01.115Z,4468
2017-03-06T13:20:12.759Z,4156
2017-03-06T13:21:24.198Z,3892
2017-03-06T13:22:35.878Z,3656
2017-03-06T13:23:47.367Z,3476
2017-03-06T13:24:58.810Z,3316
2017-03-06T13:26:10.264Z,3176
2017-03-06T13:27:21.682Z,3076
2017-03-06T13:28:33.147Z,3020
2017-03-06T13:29:44.594Z,3016
2017-03-06T13:30:56.030Z,3028
2017-03-06T13:32:07.515Z,3068
2017-03-06T13:33:19.142Z,3116
2017-03-06T13:34:30.606Z,3168
2017-03-06T13:35:42.097Z,3220
2017-03-06T13:36:53.548Z,3228
2017-03-06T13:38:05.190Z,3228
2017-03-06T13:39:16.634Z,3240
2017-03-06T13:40:28.069Z,3256
2017-03-06T13:41:39.513Z,3264
2017-03-06T13:42:51.000Z,3280
2017-03-06T13:44:02.439Z,3280
2017-03-06T13:45:13.924Z,3252
2017-03-06T13:46:25.375Z,3264
2017-03-06T13:47:36.843Z,3368
2017-03-06T13:48:48.304Z,3548
2017-03-06T13:49:59.761Z,3752
2017-03-06T13:51:11.202Z,3888
2017-03-06T13:52:22.657Z,3996
2017-03-06T13:53:34.095Z,4092
2017-03-06T13:54:45.575Z,4176
2017-03-06T13:55:57.066Z,4236
2017-03-06T13:57:08.528Z,4332
2017-03-06T13:58:19.990Z,4400
2017-03-06T13:59:31.413Z,4496
2017-03-06T14:00:42.869Z,4584
2017-03-06T14:01:54.369Z,4640
2017-03-06T14:03:05.836Z,4672
2017-03-06T14:04:17.306Z,4684
2017-03-06T14:05:28.766Z,4676
2017-03-06T14:06:40.216Z,4692
2017-03-06T14:07:51.654Z,4772
2017-03-06T14:09:03.104Z,4880
2017-03-06T14:10:14.770Z,4916
2017-03-06T14:11:26.203Z,4924
2017-03-06T14:12:37.691Z,5044
2017-03-06T14:13:49.332Z,4952
2017-03-06T14:15:00.756Z,4784
2017-03-06T14:16:12.222Z,4656
2017-03-06T14:17:23.667Z,4512
2017-03-06T14:18:35.338Z,4356
2017-03-06T14:19:46.779Z,4224
2017-03-06T14:20:58.202Z,4096
2017-03-06T14:22:09.887Z,3964
2017-03-06T14:23:21.355Z,3876
2017-03-06T14:24:32.785Z,3832
2017-03-06T14:25:44.248Z,3796
2017-03-06T14:26:55.886Z,3744
2017-03-06T14:28:07.308Z,3656
2017-03-06T14:29:19.147Z,3532
2017-03-06T14:30:30.790Z,3368
2017-03-06T14:31:42.242Z,3212
2017-03-06T14:32:53.702Z,3088
2017-03-06T14:34:05.209Z,2992
2017-03-06T14:35:16.847Z,2912
2017-03-06T14:36:28.277Z,2836
2017-03-06T14:37:39.709Z,2780
2017-03-06T14:38:51.160Z,2720
2017-03-06T14:40:02.799Z,2620
2017-03-06T14:41:14.434Z,2488
2017-03-06T14:42:25.881Z,2368
2017-03-06T14:43:37.328Z,2280
2017-03-06T14:44:48.845Z,2248
2017-03-06T14:46:00.276Z,2228
2017-03-06T14:47:11.698Z,2192
2017-03-06T14:48:23.129Z,2136
2017-03-06T14:49:34.577Z,2052
2017-03-06T14:50:46.016Z,1976
2017-03-06T14:51:57.855Z,1900
2017-03-06T14:53:09.301Z,1832
2017-03-06T14:54:20.746Z,1768
2017-03-06T14:55:32.250Z,1644
2017-03-06T14:56:43.683Z,1508
2017-03-06T14:57:55.124Z,1396
2017-03-06T14:59:06.555Z,1288
2017-03-06T15:00:17.982Z,1188
2017-03-06T15:01:29.416Z,1104
2017-03-06T15:02:40.882Z,1032
2017-03-06T15:03:52.309Z,976
2017-03-06T15:05:03.737Z,928
2017-03-06T15:06:15.251Z,888
2017-03-06T15:07:26.720Z,844
2017-03-06T15:08:38.150Z,800
2017-03-06T15:09:49.585Z,764
2017-03-06T15:11:01.034Z,744
2017-03-06T15:12:12.516Z,724
2017-03-06T15:13:23.960Z,716
2017-03-06T15:14:35.418Z,720
2017-03-06T15:15:46.859Z,732
2017-03-06T15:16:58.285Z,744
2017-03-06T15:18:09.764Z,772
2017-03-06T15:19:21.416Z,808
2017-03-06T15:20:33.058Z,844
2017-03-06T15:21:44.537Z,868
2017-03-06T15:22:55.969Z,900
2017-03-06T15:24:07.422Z,960
2017-03-06T15:25:18.869Z,1036
2017-03-06T15:26:30.300Z,1132
2017-03-06T15:27:41.785Z,1228
2017-03-06T15:28:53.210Z,1328
2017-03-06T15:30:04.847Z,1420
2017-03-06T15:31:16.318Z,1496
2017-03-06T15:32:27.750Z,1540
2017-03-06T15:33:39.194Z,1560
2017-03-06T15:34:50.622Z,1560
2017-03-06T15:36:02.083Z,1564
2017-03-06T15:37:13.535Z,1564
2017-03-06T15:38:25.035Z,1552
2017-03-06T15:39:36.482Z,1528
2017-03-06T15:40:47.936Z,1496
2017-03-06T15:41:59.362Z,1460
2017-03-06T15:43:10.795Z,1424
2017-03-06T15:44:22.273Z,1404
2017-03-06T15:45:33.724Z,1392
2017-03-06T15:46:45.155Z,1380
2017-03-06T15:47:56.582Z,1352
2017-03-06T15:49:08.014Z,1324
2017-03-06T15:50:21.282Z,1312
2017-03-06T15:51:36.533Z,1348
2017-03-06T15:52:49.223Z,1408
2017-03-06T15:55:28.924Z,1560
2017-03-06T15:56:40.566Z,1612
2017-03-06T15:57:51.999Z,1632
2017-03-06T15:59:03.444Z,1664
2017-03-06T16:00:14.925Z,1724
2017-03-06T16:01:26.354Z,1816
2017-03-06T16:02:37.793Z,1900
2017-03-06T16:03:49.449Z,1952
2017-03-06T16:05:00.883Z,1980
2017-03-06T16:06:12.583Z,1976
2017-03-06T16:07:24.006Z,1936
2017-03-06T16:08:35.456Z,1872
2017-03-06T16:09:46.881Z,1812
2017-03-06T16:10:58.572Z,1748
2017-03-06T16:12:10.024Z,1688
2017-03-06T16:13:21.475Z,1624
2017-03-06T16:14:32.919Z,1552
2017-03-06T16:15:44.350Z,1492
2017-03-06T16:16:55.849Z,1448
2017-03-06T16:18:07.299Z,1428
2017-03-06T16:19:18.723Z,1424
2017-03-06T16:20:30.570Z,1412
2017-03-06T16:21:42.200Z,1392
2017-03-06T16:22:53.631Z,1368
2017-03-06T16:24:05.062Z,1336
2017-03-06T16:25:16.500Z,1300
2017-03-06T16:26:27.937Z,1272
2017-03-06T16:27:39.685Z,1236
2017-03-06T16:28:51.133Z,1204
2017-03-06T16:30:02.798Z,1168
2017-03-06T16:31:14.243Z,1136